• Join FlightAware (Why Join?)
  • Login
  • US Flag 
12:34PM EDT


 

Airport Tracker/Info


-or-


 

Live Flight TrackerFlight Track Log ✈ UAL420 ✈ 28-Apr-2012 ✈ KORD - KROC

Flight Track Log - Related Links

Times and Time Zones

All times are in EDT time to prevent confusion due to time zone crossing. See the UAL420 flight status page for this flight to view local times or setup timezone preferences in your user account.

Time Position Orientation Groundspeed Altitude Reporting Facility
EDT Latitude Longitude Course Direction KTS MPH feet Rate Location/Type
09:14PM 41.9845 -87.8668 45° Northeast  Level FlightAware Approximate
09:15PM 42.0010 -87.7136 297° West  Level FlightAware Approximate
09:16PM 42.0333 -87.8000 82° East 215 247 4,900  Level Chicago TRACON
09:18PM 42.0517 -87.6133 82° East 265 305 10,600 2,580 Climbing Chicago Center
09:19PM 42.0664 -87.4786 82° East 314 361 12,800 2,400 Climbing Chicago Center
09:20PM 42.0825 -87.3300 81° East 368 423 15,400 2,700 Climbing Chicago Center
09:21PM 42.1006 -87.1783 82° East 396 456 18,200 2,640 Climbing Chicago Center
09:22PM 42.1164 -87.0181 87° East 418 481 20,700 2,100 Climbing Chicago Center
09:23PM 42.1231 -86.8497 88° East 435 501 22,500 1,860 Climbing Chicago Center
09:24PM 42.1272 -86.6622 88° East 448 516 24,500 1,860 Climbing Chicago Center
09:25PM 42.1311 -86.4772 87° East 468 539 26,300 1,800 Climbing Chicago Center
09:26PM 42.1389 -86.2947 89° East 480 552 28,200 2,280 Climbing Chicago Center
09:27PM 42.1422 -86.1153 89° East 480 552 30,900 2,280 Climbing Chicago Center
09:28PM 42.1436 -85.9417 91° East 475 547 32,800 1,020 Climbing Chicago Center
09:29PM 42.1403 -85.7653 91° East 475 547 33,000 60 Climbing Chicago Center
09:30PM 42.1389 -85.5944 91° East 468 539 33,000  Level Chicago Center
09:31PM 42.1344 -85.3411 90° East 456 525 33,000  Level Cleveland Center
09:32PM 42.1333 -85.1644 92° East 466 536 33,000  Level Cleveland Center
09:33PM 42.1297 -84.9906 92° East 466 536 33,000  Level Cleveland Center
09:34PM 42.1258 -84.8139 93° East 466 536 33,000 -60 Level Cleveland Center
09:35PM 42.1183 -84.6203 88° East 466 536 32,900  Descending Cleveland Center
09:36PM 42.1222 -84.4439 83° East 466 536 33,000  Climbing Cleveland Center
09:37PM 42.1383 -84.2742 81° East 461 531 33,000 -60 Level Cleveland Center
09:38PM 42.1583 -84.0989 81° East 466 536 32,900 -60 Descending Cleveland Center
09:39PM 42.1753 -83.9483 80° East 461 531 32,900  Level Cleveland Center
09:40PM 42.1969 -83.7728 81° East 461 531 32,900  Level Cleveland Center
09:41PM 42.2161 -83.6028 85° East 461 531 32,900  Level Cleveland Center
09:42PM 42.2269 -83.4294 90° East 468 539 33,000  Climbing Cleveland Center
09:43PM 42.2269 -83.2528 92° East 463 533 33,000 -60 Level Cleveland Center
09:44PM 42.2211 -83.0533 92° East 478 550 32,900 -60 Descending Cleveland Center
09:45PM 42.2164 -82.8736 92° East 478 550 32,900  Level Cleveland Center
09:46PM 42.2131 -82.7167 91° East 478 550 32,900  Level Cleveland Center
09:47PM 42.2100 -82.5428 92° East 478 550 32,900  Level Cleveland Center
09:48PM 42.2047 -82.3575 93° East 478 550 32,900 -420 Level Cleveland Center
09:49PM 42.1989 -82.1836 90° East 478 550 32,100 -900 Descending Cleveland Center
09:50PM 42.1975 -81.9817 91° East 478 550 31,100 -1,020 Descending Cleveland Center
09:51PM 42.1953 -81.8078 93° East 478 550 30,100 -1,200 Descending Cleveland Center
09:52PM 42.1883 -81.6481 92° East 478 550 28,700 -1,560 Descending Cleveland Center
09:53PM 42.1836 -81.4742 93° East 473 544 27,000 -900 Descending Cleveland Center
09:54PM 42.1767 -81.3033 92° East 463 533 27,000  Level Cleveland Center
09:55PM 42.1714 -81.1294 92° East 463 533 27,000  Level Cleveland Center
09:56PM 42.1678 -80.9586 70° East 453 521 27,000 -60 Level Cleveland Center
09:57PM 42.2119 -80.7933 64° Northeast 441 507 26,900 -60 Descending Cleveland Center
09:58PM 42.2664 -80.6450 66° East 435 501 26,900 -900 Level Cleveland Center
09:59PM 42.3164 -80.4961 65° Northeast 435 501 25,100 -1,740 Descending Cleveland Center
10:00PM 42.3661 -80.3528 66° East 435 501 23,500 -1,500 Descending Cleveland Center
10:01PM 42.4097 -80.2175 65° Northeast 408 470 22,100 -1,380 Descending Cleveland Center
10:02PM 42.4528 -80.0908 63° Northeast 379 436 20,800 -1,800 Descending Cleveland Center
10:03PM 42.4983 -79.9692 67° East 360 414 18,600 -1,800 Descending Cleveland Center
10:04PM 42.5350 -79.8506 66° East 360 414 17,300 -1,560 Descending Cleveland Center
10:05PM 42.5739 -79.7317 65° Northeast 349 402 15,500 -1,920 Descending Cleveland Center
10:06PM 42.6144 -79.6156 64° Northeast 338 389 13,500 -1,800 Descending Cleveland Center
10:07PM 42.6553 -79.5019 69° East 338 389 11,900 -1,260 Descending Cleveland Center
10:08PM 42.6814 -79.4111 65° Northeast 328 377 11,000 -480 Descending Cleveland Center
10:09PM 42.7300 -79.2689 68° East 334 384 11,000  Level Cleveland Center
10:10PM 42.7661 -79.1494 75° East 341 392 11,000  Level Cleveland Center
10:11PM 42.7914 -79.0244 75° East 336 387 11,000  Level Cleveland Center
10:12PM 42.8128 -78.9133 75° East 336 387 11,000  Level Cleveland Center
10:13PM 42.8381 -78.7881 74° East 341 392 11,000  Level Cleveland Center
10:14PM 42.8633 -78.6656 74° East 341 392 11,000 -300 Level Cleveland Center
10:15PM 42.8883 -78.5458 77° East 330 380 10,500 -1,080 Descending Cleveland Center
10:16PM 42.9089 -78.4203 84° East 308 354 8,900 -1,500 Descending Cleveland Center
10:17PM 42.9172 -78.3125 82° East 294 338 7,500 -1,140 Descending Cleveland Center
10:18PM 42.9225 -78.2583 79° East 288 331 7,200 -420 Descending Cleveland Center
10:18PM 42.9297 -78.2069 82° East 288 331 7,100 -300 Descending Cleveland Center
10:19PM 42.9350 -78.1558 71° East 283 326 6,900 -1,260 Descending Cleveland Center
10:20PM 42.9600 -78.0556 72° East 277 319 5,200 -1,380 Descending Cleveland Center
10:21PM 42.9828 -77.9608 72° East 267 307 4,100 -1,140 Descending Cleveland Center